createdAt,value
2017-07-17T00:00:34.816Z,91.72
2017-07-17T00:01:34.723Z,92.58
2017-07-17T00:02:34.390Z,92.4
2017-07-17T00:03:34.387Z,92.58
2017-07-17T00:04:34.384Z,92.49
2017-07-17T00:05:34.644Z,92.68
2017-07-17T00:06:34.377Z,92.58
2017-07-17T00:07:34.728Z,92.49
2017-07-17T00:08:34.369Z,92.68
2017-07-17T00:09:34.365Z,93.02
2017-07-17T00:10:34.360Z,94.65
2017-07-17T00:11:34.357Z,95.75
2017-07-17T00:12:34.688Z,95.41
2017-07-17T00:13:34.354Z,95.41
2017-07-17T00:14:34.572Z,95.79
2017-07-17T00:15:34.344Z,96.27
2017-07-17T00:16:34.338Z,97.71
2017-07-17T00:17:35.337Z,98.28
2017-07-17T00:18:34.660Z,98.57
2017-07-17T00:19:34.343Z,97.9
2017-07-17T00:20:34.715Z,97.52
2017-07-17T00:21:34.322Z,97.61
2017-07-17T00:22:34.681Z,98.28
2017-07-17T00:23:34.639Z,98.95
2017-07-17T00:24:34.311Z,99.52
2017-07-17T00:25:35.153Z,99.91
2017-07-17T00:26:34.320Z,99.99
2017-07-17T00:27:34.624Z,99.99
2017-07-17T00:28:34.802Z,99.99
2017-07-17T00:29:34.621Z,99.99
2017-07-17T00:30:34.615Z,99.91
2017-07-17T00:31:34.283Z,99.99
2017-07-17T00:32:35.327Z,99.99
2017-07-17T00:33:34.292Z,99.99
2017-07-17T00:34:34.270Z,99.99
2017-07-17T00:35:34.512Z,99.99
2017-07-17T00:36:34.263Z,99.99
2017-07-17T00:37:34.257Z,99.99
2017-07-17T00:38:34.690Z,99.99
2017-07-17T00:39:34.579Z,99.99
2017-07-17T00:40:34.246Z,99.99
2017-07-17T00:41:34.242Z,99.99
2017-07-17T00:42:34.238Z,99.99
2017-07-17T00:43:34.631Z,99.99
2017-07-17T00:44:34.229Z,99.99
2017-07-17T00:45:34.226Z,99.99
2017-07-17T00:46:34.491Z,99.99
2017-07-17T00:47:34.217Z,99.99
2017-07-17T00:48:34.545Z,99.99
2017-07-17T00:49:34.946Z,99.99
2017-07-17T00:50:34.207Z,99.99
2017-07-17T00:51:34.529Z,99.99
2017-07-17T00:52:34.198Z,99.99
2017-07-17T00:53:34.364Z,99.99
2017-07-17T00:54:34.519Z,99.99
2017-07-17T00:55:34.528Z,99.99
2017-07-17T00:56:34.460Z,99.99
2017-07-17T00:57:34.508Z,99.99
2017-07-17T00:58:34.290Z,99.99
2017-07-17T00:59:34.190Z,99.99
2017-07-17T01:00:34.182Z,99.99
2017-07-17T01:01:34.509Z,99.99
2017-07-17T01:02:34.601Z,99.99
2017-07-17T01:03:34.166Z,99.99
2017-07-17T01:04:34.151Z,99.99
2017-07-17T01:05:34.162Z,99.99
2017-07-17T01:06:34.471Z,99.99
2017-07-17T01:07:34.308Z,99.99
2017-07-17T01:08:34.462Z,99.99
2017-07-17T01:09:34.130Z,99.99
2017-07-17T01:10:34.585Z,99.99
2017-07-17T01:11:34.122Z,99.99
2017-07-17T01:12:34.118Z,99.99
2017-07-17T01:13:34.113Z,99.99
2017-07-17T01:14:34.112Z,99.99
2017-07-17T01:15:34.105Z,99.99
2017-07-17T01:16:34.450Z,99.99
2017-07-17T01:17:34.426Z,99.99
2017-07-17T01:18:34.096Z,99.99
2017-07-17T01:19:34.090Z,99.99
2017-07-17T01:20:34.415Z,99.99
2017-07-17T01:21:34.082Z,99.99
2017-07-17T01:22:34.079Z,99.99
2017-07-17T01:23:34.074Z,99.99
2017-07-17T01:24:34.396Z,99.99
2017-07-17T01:25:34.517Z,99.99
2017-07-17T01:26:34.062Z,99.99
2017-07-17T01:27:34.059Z,99.99
2017-07-17T01:28:34.060Z,99.99
2017-07-17T01:29:34.052Z,99.99
2017-07-17T01:30:34.413Z,99.99
2017-07-17T01:31:34.370Z,99.99
2017-07-17T01:32:34.374Z,99.99
2017-07-17T01:33:34.035Z,99.99
2017-07-17T01:34:34.031Z,99.99
2017-07-17T01:35:34.027Z,99.99
2017-07-17T01:36:34.353Z,99.99
2017-07-17T01:37:34.351Z,99.99
2017-07-17T01:38:34.344Z,99.99
2017-07-17T01:39:34.357Z,99.99
2017-07-17T01:40:34.007Z,99.99
2017-07-17T01:41:34.006Z,99.99
2017-07-17T01:42:34.016Z,99.99
2017-07-17T01:43:34.347Z,99.99
2017-07-17T01:44:34.320Z,99.99
2017-07-17T01:45:33.987Z,99.99
2017-07-17T01:46:33.994Z,99.99
2017-07-17T01:47:33.979Z,99.99
2017-07-17T01:48:33.993Z,99.99
2017-07-17T01:49:33.971Z,99.99
2017-07-17T01:50:33.973Z,99.99
2017-07-17T01:51:34.202Z,99.99
2017-07-17T01:52:34.291Z,99.99
2017-07-17T01:53:34.293Z,99.99
2017-07-17T01:54:33.962Z,99.99
2017-07-17T01:55:33.945Z,99.99
2017-07-17T01:56:33.943Z,99.99
2017-07-17T01:57:33.936Z,99.99
2017-07-17T01:58:33.935Z,99.99
2017-07-17T01:59:33.937Z,99.99
2017-07-17T02:00:33.926Z,99.99
2017-07-17T02:01:33.924Z,99.99
2017-07-17T02:02:33.917Z,99.99
2017-07-17T02:03:33.915Z,99.99
2017-07-17T02:04:33.909Z,99.99
2017-07-17T02:05:34.260Z,99.99
2017-07-17T02:06:33.913Z,99.99
2017-07-17T02:07:34.229Z,99.99
2017-07-17T02:08:34.225Z,99.99
2017-07-17T02:09:34.219Z,99.99
2017-07-17T02:10:34.221Z,99.99
2017-07-17T02:11:33.882Z,99.99
2017-07-17T02:12:33.877Z,99.99
2017-07-17T02:13:34.270Z,99.99
2017-07-17T02:14:34.201Z,99.99
2017-07-17T02:15:33.883Z,99.99
2017-07-17T02:16:34.210Z,99.99
2017-07-17T02:17:34.218Z,99.99
2017-07-17T02:18:33.876Z,99.99
2017-07-17T02:19:33.855Z,99.99
2017-07-17T02:20:33.845Z,99.99
2017-07-17T02:21:34.169Z,99.99
2017-07-17T02:22:34.184Z,99.99
2017-07-17T02:23:34.163Z,99.99
2017-07-17T02:24:34.177Z,99.99
2017-07-17T02:25:34.158Z,99.99
2017-07-17T02:26:33.822Z,99.99
2017-07-17T02:27:33.848Z,99.99
2017-07-17T02:28:33.834Z,99.99
2017-07-17T02:29:33.813Z,99.99
2017-07-17T02:30:33.807Z,99.99
2017-07-17T02:31:33.819Z,99.99
2017-07-17T02:32:33.796Z,99.99
2017-07-17T02:33:34.130Z,99.99
2017-07-17T02:34:34.143Z,99.99
2017-07-17T02:35:33.800Z,99.99
2017-07-17T02:36:33.779Z,99.99
2017-07-17T02:37:33.789Z,99.99
2017-07-17T02:38:34.107Z,99.99
2017-07-17T02:39:34.100Z,99.99
2017-07-17T02:40:33.768Z,99.99
2017-07-17T02:41:33.775Z,99.99
2017-07-17T02:42:33.756Z,99.99
2017-07-17T02:43:33.755Z,99.99
2017-07-17T02:44:34.081Z,99.99
2017-07-17T02:45:33.745Z,99.99
2017-07-17T02:46:34.074Z,99.99
2017-07-17T02:47:33.743Z,99.99
2017-07-17T02:48:33.736Z,99.99
2017-07-17T02:49:33.732Z,99.99
2017-07-17T02:50:33.727Z,99.99
2017-07-17T02:51:33.724Z,99.99
2017-07-17T02:52:34.055Z,99.99
2017-07-17T02:53:34.058Z,99.99
2017-07-17T02:54:33.712Z,99.99
2017-07-17T02:55:33.708Z,99.99
2017-07-17T02:56:34.035Z,99.99
2017-07-17T02:57:33.700Z,99.99
2017-07-17T02:58:34.040Z,99.99
2017-07-17T02:59:34.025Z,99.99
2017-07-17T03:00:33.688Z,99.99
2017-07-17T03:01:33.686Z,99.99
2017-07-17T03:02:33.698Z,99.99
2017-07-17T03:03:34.008Z,99.99
2017-07-17T03:04:33.695Z,99.99
2017-07-17T03:05:33.670Z,99.99
2017-07-17T03:06:34.003Z,99.99
2017-07-17T03:07:33.661Z,99.99
2017-07-17T03:08:33.663Z,99.99
2017-07-17T03:09:33.654Z,99.99
2017-07-17T03:10:33.651Z,99.99
2017-07-17T03:11:33.648Z,99.99
2017-07-17T03:12:33.645Z,99.99
2017-07-17T03:13:33.655Z,99.99
2017-07-17T03:14:33.965Z,99.99
2017-07-17T03:15:33.643Z,99.99
2017-07-17T03:16:33.964Z,99.99
2017-07-17T03:17:33.625Z,99.99
2017-07-17T03:18:33.620Z,99.99
2017-07-17T03:19:33.630Z,99.99
2017-07-17T03:20:33.612Z,99.99
2017-07-17T03:21:33.610Z,99.99
2017-07-17T03:22:33.616Z,99.99
2017-07-17T03:23:33.932Z,99.99
2017-07-17T03:24:33.600Z,99.99
2017-07-17T03:25:33.611Z,99.99
2017-07-17T03:26:33.924Z,99.99
2017-07-17T03:27:33.587Z,99.99
2017-07-17T03:28:33.590Z,99.99
2017-07-17T03:29:33.909Z,99.99
2017-07-17T03:30:33.577Z,99.99
2017-07-17T03:31:33.572Z,99.99
2017-07-17T03:32:33.896Z,99.99
2017-07-17T03:33:33.909Z,99.99
2017-07-17T03:34:33.561Z,99.99
2017-07-17T03:35:33.887Z,99.99
2017-07-17T03:36:33.922Z,99.99
2017-07-17T03:37:33.552Z,99.99
2017-07-17T03:38:33.548Z,99.99
2017-07-17T03:39:33.915Z,99.99
2017-07-17T03:40:33.540Z,99.99
2017-07-17T03:41:33.537Z,99.99
2017-07-17T03:42:33.533Z,99.99
2017-07-17T03:43:33.855Z,99.99
2017-07-17T03:44:33.525Z,99.99
2017-07-17T03:45:33.850Z,99.99
2017-07-17T03:46:33.520Z,99.99
2017-07-17T03:47:33.513Z,99.99
2017-07-17T03:48:33.511Z,99.99
2017-07-17T03:49:33.506Z,99.99
2017-07-17T03:50:33.502Z,99.99
2017-07-17T03:51:33.827Z,99.99
2017-07-17T03:52:33.831Z,99.99
2017-07-17T03:53:33.491Z,99.99
2017-07-17T03:54:33.504Z,99.99
2017-07-17T03:55:33.814Z,99.99
2017-07-17T03:56:33.482Z,99.99
2017-07-17T03:57:33.476Z,99.99
2017-07-17T03:58:33.830Z,99.99
2017-07-17T03:59:33.468Z,99.99
2017-07-17T04:00:33.796Z,99.99
2017-07-17T04:01:33.481Z,99.99
2017-07-17T04:02:33.456Z,99.99
2017-07-17T04:03:33.783Z,99.99
2017-07-17T04:04:33.451Z,99.99
2017-07-17T04:05:33.775Z,99.99
2017-07-17T04:06:33.774Z,99.99
2017-07-17T04:07:33.770Z,99.99
2017-07-17T04:08:33.438Z,99.99
2017-07-17T04:09:33.762Z,99.99
2017-07-17T04:10:33.438Z,99.99
2017-07-17T04:11:33.757Z,99.99
2017-07-17T04:12:33.422Z,99.99
2017-07-17T04:13:33.752Z,99.99
2017-07-17T04:14:33.416Z,99.99
2017-07-17T04:15:33.412Z,99.99
2017-07-17T04:16:33.737Z,99.99
2017-07-17T04:17:33.737Z,99.99
2017-07-17T04:18:33.731Z,99.99
2017-07-17T04:19:33.398Z,99.99
2017-07-17T04:20:33.394Z,99.99
2017-07-17T04:21:33.721Z,99.99
2017-07-17T04:22:33.388Z,99.99
2017-07-17T04:23:33.381Z,99.99
2017-07-17T04:24:33.717Z,99.99
2017-07-17T04:25:33.377Z,99.99
2017-07-17T04:26:33.375Z,99.99
2017-07-17T04:27:33.369Z,99.99
2017-07-17T04:28:33.701Z,99.99
2017-07-17T04:29:33.365Z,99.99
2017-07-17T04:30:33.609Z,99.99
2017-07-17T04:31:33.377Z,99.99
2017-07-17T04:32:33.359Z,99.99
2017-07-17T04:33:33.684Z,99.99
2017-07-17T04:34:33.349Z,99.99
2017-07-17T04:35:33.345Z,99.99
2017-07-17T04:36:33.673Z,99.99
2017-07-17T04:37:33.674Z,99.99
2017-07-17T04:38:33.348Z,99.99
2017-07-17T04:39:33.330Z,99.99
2017-07-17T04:40:33.331Z,99.99
2017-07-17T04:41:33.325Z,99.99
2017-07-17T04:42:33.322Z,99.99
2017-07-17T04:43:33.333Z,99.99
2017-07-17T04:44:33.330Z,99.99
2017-07-17T04:45:33.315Z,99.99
2017-07-17T04:46:33.309Z,99.99
2017-07-17T04:47:33.316Z,99.99
2017-07-17T04:48:33.637Z,99.99
2017-07-17T04:49:33.631Z,99.99
2017-07-17T04:50:33.298Z,99.99
2017-07-17T04:51:33.296Z,99.99
2017-07-17T04:52:33.294Z,99.99
2017-07-17T04:53:33.622Z,99.99
2017-07-17T04:54:33.287Z,99.99
2017-07-17T04:55:33.625Z,99.99
2017-07-17T04:56:33.608Z,99.99
2017-07-17T04:57:33.279Z,99.99
2017-07-17T04:58:33.278Z,99.99
2017-07-17T04:59:33.318Z,99.99
2017-07-17T05:00:33.292Z,99.99
2017-07-17T05:01:33.270Z,99.99
2017-07-17T05:02:33.598Z,99.99
2017-07-17T05:03:33.265Z,99.99
2017-07-17T05:04:33.608Z,99.99
2017-07-17T05:05:33.587Z,99.99
2017-07-17T05:06:33.590Z,99.99
2017-07-17T05:07:33.252Z,99.99
2017-07-17T05:08:33.253Z,99.54
2017-07-17T05:09:33.252Z,98.67
2017-07-17T05:10:33.246Z,98.77
2017-07-17T05:11:33.258Z,99.2
2017-07-17T05:12:33.249Z,97.52
2017-07-17T05:13:33.572Z,95.75
2017-07-17T05:14:33.237Z,96.61
2017-07-17T05:15:33.237Z,96.03
2017-07-17T05:16:33.232Z,96.7
2017-07-17T05:17:33.245Z,95.94
2017-07-17T05:18:33.240Z,96.32
2017-07-17T05:19:33.247Z,95.94
2017-07-17T05:20:33.228Z,94.21
2017-07-17T05:21:33.223Z,94.21
2017-07-17T05:22:33.555Z,93.92
2017-07-17T05:23:33.547Z,93.05
2017-07-17T05:24:33.218Z,93.19
2017-07-17T05:25:33.214Z,93.25
2017-07-17T05:26:33.546Z,92
2017-07-17T05:27:33.566Z,92.67
2017-07-17T05:28:33.211Z,93.1
2017-07-17T05:29:33.208Z,92.38
2017-07-17T05:30:33.738Z,92
2017-07-17T05:31:33.537Z,92.96
2017-07-17T05:32:33.539Z,93.05
2017-07-17T05:33:33.243Z,93.34
2017-07-17T05:34:33.532Z,93.49
2017-07-17T05:35:33.198Z,93.44
2017-07-17T05:36:33.213Z,93.05
2017-07-17T05:37:33.523Z,93.73
2017-07-17T05:38:33.195Z,93.01
2017-07-17T05:39:33.522Z,92.14
2017-07-17T05:40:33.521Z,92.05
2017-07-17T05:41:33.189Z,93.01
2017-07-17T05:42:33.188Z,92.62
2017-07-17T05:43:33.185Z,92.05
2017-07-17T05:44:33.520Z,91.66
2017-07-17T05:45:33.197Z,90.7
2017-07-17T05:46:33.182Z,90.03
2017-07-17T05:47:33.197Z,90.99
2017-07-17T05:48:33.505Z,90.6
2017-07-17T05:49:33.180Z,90.27
2017-07-17T05:50:33.522Z,90.94
2017-07-17T05:51:33.187Z,91.23
2017-07-17T05:52:33.501Z,91.13
2017-07-17T05:53:33.169Z,93.05
2017-07-17T05:54:33.167Z,93.34
2017-07-17T05:55:33.166Z,93.82
2017-07-17T05:56:33.182Z,93.25
2017-07-17T05:57:33.163Z,93.01
2017-07-17T05:58:33.159Z,92.33
2017-07-17T05:59:33.161Z,91.37
2017-07-17T06:00:33.159Z,91.71
2017-07-17T06:01:33.156Z,90.94
2017-07-17T06:02:33.483Z,88.44
2017-07-17T06:03:33.153Z,87.76
2017-07-17T06:04:33.155Z,87.76
2017-07-17T06:05:33.170Z,87.57
2017-07-17T06:06:33.486Z,87.67
2017-07-17T06:07:33.150Z,86.99
2017-07-17T06:08:33.148Z,86.99
2017-07-17T06:09:33.146Z,87.67
2017-07-17T06:10:33.162Z,87.19
2017-07-17T06:11:33.480Z,86.22
2017-07-17T06:12:33.470Z,86.22
2017-07-17T06:13:33.140Z,86.71
2017-07-17T06:14:33.471Z,85.69
2017-07-17T06:15:33.168Z,85.88
2017-07-17T06:16:33.465Z,85.94
2017-07-17T06:17:33.149Z,87.48
2017-07-17T06:18:33.135Z,88.73
2017-07-17T06:19:33.148Z,89.3
2017-07-17T06:20:33.133Z,89.78
2017-07-17T06:21:33.132Z,88.82
2017-07-17T06:22:33.130Z,88.68
2017-07-17T06:23:33.134Z,89.54
2017-07-17T06:24:33.466Z,90.03
2017-07-17T06:25:33.125Z,90.22
2017-07-17T06:26:33.124Z,91.18
2017-07-17T06:27:33.132Z,91.37
2017-07-17T06:28:33.123Z,91.85
2017-07-17T06:29:33.455Z,92.77
2017-07-17T06:30:33.450Z,93.39
2017-07-17T06:31:33.181Z,92.96
2017-07-17T06:32:33.121Z,92.77
2017-07-17T06:33:33.464Z,93.82
2017-07-17T06:34:33.132Z,94.69
2017-07-17T06:35:33.439Z,94.78
2017-07-17T06:36:33.144Z,96.99
2017-07-17T06:37:33.440Z,97.33
2017-07-17T06:38:33.107Z,96.42
2017-07-17T06:39:33.106Z,96.42
2017-07-17T06:40:33.106Z,96.51
2017-07-17T06:41:33.448Z,96.22
2017-07-17T06:42:33.102Z,96.61
2017-07-17T06:43:33.425Z,96.32
2017-07-17T06:44:33.100Z,96.61
2017-07-17T06:45:33.425Z,94.78
2017-07-17T06:46:33.425Z,94.49
2017-07-17T06:47:33.095Z,93.68
2017-07-17T06:48:33.140Z,95.12
2017-07-17T06:49:33.091Z,94.64
2017-07-17T06:50:33.090Z,93.77
2017-07-17T06:51:33.422Z,93.24
2017-07-17T06:52:33.086Z,93.15
2017-07-17T06:53:33.085Z,91.8
2017-07-17T06:54:33.416Z,90.65
2017-07-17T06:55:33.097Z,90.36
2017-07-17T06:56:33.081Z,90.51
2017-07-17T06:57:33.080Z,90.41
2017-07-17T06:58:33.108Z,91.37
2017-07-17T06:59:33.086Z,92.05
2017-07-17T07:00:33.118Z,93.39
2017-07-17T07:01:33.405Z,94.59
2017-07-17T07:02:33.401Z,94.59
2017-07-17T07:03:33.102Z,94.78
2017-07-17T07:04:33.069Z,94.78
2017-07-17T07:05:33.430Z,95.75
2017-07-17T07:06:33.067Z,95.79
2017-07-17T07:07:33.065Z,96.27
2017-07-17T07:08:33.062Z,97.42
2017-07-17T07:09:33.392Z,98.29
2017-07-17T07:10:33.391Z,98.77
2017-07-17T07:11:33.392Z,98.67
2017-07-17T07:12:33.409Z,99.15
2017-07-17T07:13:33.069Z,99.99
2017-07-17T07:14:33.054Z,99.99
2017-07-17T07:15:33.073Z,99.99
2017-07-17T07:16:33.376Z,98.63
2017-07-17T07:17:33.050Z,97.76
2017-07-17T07:18:33.046Z,97.96
2017-07-17T07:19:33.373Z,97.38
2017-07-17T07:20:33.390Z,97.42
2017-07-17T07:21:33.041Z,96.85
2017-07-17T07:22:33.054Z,95.4
2017-07-17T07:23:33.366Z,94.83
2017-07-17T07:24:33.043Z,93.34
2017-07-17T07:25:33.380Z,90.75
2017-07-17T07:26:33.031Z,90.75
2017-07-17T07:27:33.031Z,90.26
2017-07-17T07:28:33.031Z,89.21
2017-07-17T07:29:33.360Z,88.57
2017-07-17T07:30:33.356Z,87.04
2017-07-17T07:31:33.027Z,87.13
2017-07-17T07:32:33.026Z,85.44
2017-07-17T07:33:33.024Z,84.87
2017-07-17T07:34:33.024Z,85.54
2017-07-17T07:35:33.025Z,84.14
2017-07-17T07:36:33.037Z,84.14
2017-07-17T07:37:33.023Z,84.53
2017-07-17T07:38:33.022Z,84.72
2017-07-17T07:39:39.285Z,83.95
2017-07-17T07:40:33.017Z,83.8
2017-07-17T07:41:33.035Z,82.35
2017-07-17T07:42:33.355Z,81.87
2017-07-17T07:43:33.017Z,82.35
2017-07-17T07:44:33.346Z,83.12
2017-07-17T07:45:33.353Z,81.96
2017-07-17T07:46:33.364Z,80.33
2017-07-17T07:47:33.367Z,81.1
2017-07-17T07:48:33.034Z,81.01
2017-07-17T07:49:33.017Z,78.69
2017-07-17T07:50:33.015Z,77.25
2017-07-17T07:51:33.013Z,76.9
2017-07-17T07:52:33.014Z,76.51
2017-07-17T07:53:33.016Z,77.58
2017-07-17T07:54:33.016Z,78.44
2017-07-17T07:55:33.369Z,78.34
2017-07-17T07:56:33.343Z,79.5
2017-07-17T07:57:33.014Z,78.44
2017-07-17T07:58:33.014Z,79.08
2017-07-17T07:59:33.015Z,78.79
2017-07-17T08:00:33.014Z,78.59
2017-07-17T08:01:34.068Z,78.4
2017-07-17T08:02:33.018Z,79.56
2017-07-17T08:03:33.345Z,80.23
2017-07-17T08:04:33.016Z,79.03
2017-07-17T08:05:33.016Z,79.43
2017-07-17T08:06:33.016Z,80.19
2017-07-17T08:07:33.017Z,80.92
2017-07-17T08:08:33.355Z,81.4
2017-07-17T08:09:33.016Z,81.4
2017-07-17T08:10:33.018Z,81.6
2017-07-17T08:11:33.018Z,80.48
2017-07-17T08:12:33.019Z,78.4
2017-07-17T08:13:33.018Z,78.98
2017-07-17T08:14:33.018Z,77.34
2017-07-17T08:15:33.032Z,76.76
2017-07-17T08:16:33.044Z,77.73
2017-07-17T08:17:33.031Z,77.19
2017-07-17T08:18:33.345Z,77.38
2017-07-17T08:19:33.044Z,76.03
2017-07-17T08:20:33.020Z,75.59
2017-07-17T08:21:33.351Z,76.03
2017-07-17T08:22:33.020Z,76.07
2017-07-17T08:23:33.353Z,75.97
2017-07-17T08:24:33.023Z,75.97
2017-07-17T08:25:33.025Z,76.36
2017-07-17T08:26:33.365Z,76.26
2017-07-17T08:27:33.025Z,76.45
2017-07-17T08:28:33.026Z,75.78
2017-07-17T08:29:33.025Z,75.49
2017-07-17T08:30:33.025Z,76.26
2017-07-17T08:31:33.034Z,76.84
2017-07-17T08:32:33.031Z,74.82
2017-07-17T08:33:33.038Z,74.91
2017-07-17T08:34:33.358Z,74.82
2017-07-17T08:35:33.029Z,74.62
2017-07-17T08:36:33.028Z,73.95
2017-07-17T08:37:33.359Z,74.43
2017-07-17T08:38:33.030Z,73.57
2017-07-17T08:39:33.033Z,73.66
2017-07-17T08:40:33.037Z,72.69
2017-07-17T08:41:33.038Z,72.69
2017-07-17T08:42:33.036Z,73.75
2017-07-17T08:43:33.037Z,73.47
2017-07-17T08:44:33.038Z,73.47
2017-07-17T08:45:33.046Z,74.1
2017-07-17T08:46:33.036Z,74.14
2017-07-17T08:47:33.038Z,74.24
2017-07-17T08:48:33.065Z,75.26
2017-07-17T08:49:33.370Z,76.03
2017-07-17T08:50:33.372Z,77.19
2017-07-17T08:51:33.386Z,76.42
2017-07-17T08:52:33.045Z,76.48
2017-07-17T08:53:33.045Z,78.4
2017-07-17T08:54:33.046Z,77.92
2017-07-17T08:55:33.047Z,78.11
2017-07-17T08:56:33.046Z,78.88
2017-07-17T08:57:33.044Z,78.02
2017-07-17T08:58:33.384Z,77.92
2017-07-17T08:59:33.047Z,77.58
2017-07-17T09:00:33.050Z,76.36
2017-07-17T09:01:33.068Z,74.47
2017-07-17T09:02:33.092Z,73.41
2017-07-17T09:03:33.052Z,72.19
2017-07-17T09:04:33.051Z,72.19
2017-07-17T09:05:33.052Z,71.03
2017-07-17T09:06:33.054Z,72.77
2017-07-17T09:07:33.053Z,72.77
2017-07-17T09:08:33.380Z,72.19
2017-07-17T09:09:33.383Z,71.12
2017-07-17T09:10:33.064Z,71.19
2017-07-17T09:11:33.061Z,71.19
2017-07-17T09:12:33.403Z,73.02
2017-07-17T09:13:33.393Z,73.79
2017-07-17T09:14:33.082Z,75.01
2017-07-17T09:15:33.062Z,75.97
2017-07-17T09:16:33.084Z,75.49
2017-07-17T09:17:33.064Z,73.85
2017-07-17T09:18:33.066Z,75.1
2017-07-17T09:19:33.068Z,75.88
2017-07-17T09:20:33.067Z,74.91
2017-07-17T09:21:33.087Z,75.74
2017-07-17T09:22:33.087Z,75.84
2017-07-17T09:23:33.082Z,74.97
2017-07-17T09:24:33.074Z,75.45
2017-07-17T09:25:33.074Z,76.61
2017-07-17T09:26:33.407Z,77.38
2017-07-17T09:27:33.416Z,77.96
2017-07-17T09:28:33.074Z,79.08
2017-07-17T09:29:33.073Z,79.6
2017-07-17T09:30:33.074Z,79.5
2017-07-17T09:31:33.076Z,77.48
2017-07-17T09:32:33.080Z,77.28
2017-07-17T09:33:33.078Z,78.25
2017-07-17T09:34:33.095Z,78.44
2017-07-17T09:35:33.404Z,78.44
2017-07-17T09:36:33.079Z,78.06
2017-07-17T09:37:33.077Z,78.34
2017-07-17T09:38:33.406Z,78.83
2017-07-17T09:39:33.408Z,80.08
2017-07-17T09:40:33.080Z,81.96
2017-07-17T09:41:33.079Z,82.35
2017-07-17T09:42:33.078Z,82.45
2017-07-17T09:43:33.079Z,82.45
2017-07-17T09:44:33.413Z,83.47
2017-07-17T09:45:33.121Z,83.66
2017-07-17T09:46:33.106Z,83.61
2017-07-17T09:47:33.415Z,82.93
2017-07-17T09:48:33.412Z,81.39
2017-07-17T09:49:33.089Z,81.52
2017-07-17T09:50:33.409Z,83.2
2017-07-17T09:51:33.415Z,81.6
2017-07-17T09:52:33.083Z,80.49
2017-07-17T09:53:33.085Z,79.12
2017-07-17T09:54:33.089Z,76.8
2017-07-17T09:55:33.088Z,70.84
2017-07-17T09:56:33.112Z,68.37
2017-07-17T09:57:33.458Z,67.59
2017-07-17T09:58:33.093Z,69.14
2017-07-17T09:59:33.094Z,67.33
2017-07-17T10:00:33.115Z,66.08
2017-07-17T10:01:33.427Z,65.53
2017-07-17T10:02:33.111Z,64.62
2017-07-17T10:03:33.432Z,64.24
2017-07-17T10:04:33.101Z,66.53
2017-07-17T10:05:33.432Z,67.56
2017-07-17T10:06:33.105Z,69.07
2017-07-17T10:07:33.106Z,69.62
2017-07-17T10:08:33.108Z,71.06
2017-07-17T10:09:33.113Z,72
2017-07-17T10:10:33.110Z,72.96
2017-07-17T10:11:33.119Z,72.83
2017-07-17T10:12:33.441Z,72.63
2017-07-17T10:13:33.114Z,73.6
2017-07-17T10:14:33.129Z,73.85
2017-07-17T10:15:33.136Z,73.47
2017-07-17T10:16:33.121Z,74.4
2017-07-17T10:17:33.447Z,74.01
2017-07-17T10:18:33.122Z,74.88
2017-07-17T10:19:33.122Z,76.03
2017-07-17T10:20:33.456Z,74.78
2017-07-17T10:21:33.127Z,74.88
2017-07-17T10:22:33.452Z,74.97
2017-07-17T10:23:33.127Z,76.13
2017-07-17T10:24:33.475Z,75.55
2017-07-17T10:25:33.468Z,76.17
2017-07-17T10:26:33.129Z,75.59
2017-07-17T10:27:33.130Z,73.37
2017-07-17T10:28:33.130Z,73.31
2017-07-17T10:29:33.134Z,73.02
2017-07-17T10:30:33.134Z,72.92
2017-07-17T10:31:33.479Z,73.06
2017-07-17T10:32:33.137Z,71.12
2017-07-17T10:33:33.137Z,71.26
2017-07-17T10:34:33.466Z,70.39
2017-07-17T10:35:33.143Z,69.17
2017-07-17T10:36:33.476Z,68.43
2017-07-17T10:37:33.141Z,66.59
2017-07-17T10:38:33.145Z,66.5
2017-07-17T10:39:33.145Z,63.34
2017-07-17T10:40:33.145Z,64.4
2017-07-17T10:41:33.148Z,64.89
2017-07-17T10:42:33.151Z,63.46
2017-07-17T10:43:33.480Z,62.98
2017-07-17T10:44:33.157Z,62.88
2017-07-17T10:45:33.157Z,62.24
2017-07-17T10:46:33.161Z,63.92
2017-07-17T10:47:33.492Z,62.56
2017-07-17T10:48:33.166Z,59.97
2017-07-17T10:49:33.178Z,58.52
2017-07-17T10:50:33.167Z,56.9
2017-07-17T10:51:33.190Z,58.74
2017-07-17T10:52:33.175Z,58.74
2017-07-17T10:53:33.177Z,60.3
2017-07-17T10:54:33.178Z,58.67
2017-07-17T10:55:33.182Z,55.87
2017-07-17T10:56:33.186Z,53.34
2017-07-17T10:57:33.192Z,52.56
2017-07-17T10:58:33.535Z,52.56
2017-07-17T10:59:33.196Z,52.01
2017-07-17T11:00:33.529Z,51.53
2017-07-17T11:01:33.203Z,51.91
2017-07-17T11:02:38.936Z,52.5
2017-07-17T11:03:33.217Z,53.66
2017-07-17T11:04:33.544Z,54.05
2017-07-17T11:05:33.232Z,52.78
2017-07-17T11:06:33.243Z,53.95
2017-07-17T11:07:33.554Z,53.75
2017-07-17T11:08:33.230Z,53.92
2017-07-17T11:09:33.232Z,54.67
2017-07-17T11:10:33.276Z,54.48
2017-07-17T11:11:33.247Z,55.32
2017-07-17T11:12:33.243Z,57.26
2017-07-17T11:13:33.250Z,57.84
2017-07-17T11:14:33.254Z,59.49
2017-07-17T11:15:33.588Z,57.65
2017-07-17T11:16:33.259Z,55.42
2017-07-17T11:17:33.597Z,55.52
2017-07-17T11:18:33.619Z,54.26
2017-07-17T11:19:33.274Z,55.13
2017-07-17T11:20:33.605Z,56.51
2017-07-17T11:21:33.618Z,56.23
2017-07-17T11:22:33.613Z,53.89
2017-07-17T11:23:33.288Z,54.84
2017-07-17T11:24:33.621Z,58.52
2017-07-17T11:25:33.628Z,58.42
2017-07-17T11:26:33.301Z,58.62
2017-07-17T11:27:33.634Z,58.52
2017-07-17T11:28:33.681Z,58.91
2017-07-17T11:29:33.651Z,57.43
2017-07-17T11:30:33.314Z,59.94
2017-07-17T11:31:33.320Z,58.01
2017-07-17T11:32:33.324Z,58.95
2017-07-17T11:33:33.328Z,58.37
2017-07-17T11:34:33.657Z,58.82
2017-07-17T11:35:33.333Z,59.4
2017-07-17T11:36:33.337Z,60.27
2017-07-17T11:37:33.342Z,61.43
2017-07-17T11:38:33.342Z,60.24
2017-07-17T11:39:33.689Z,60.34
2017-07-17T11:40:33.350Z,61.4
2017-07-17T11:41:33.359Z,61.79
2017-07-17T11:42:33.684Z,61.5
2017-07-17T11:43:33.360Z,61.3
2017-07-17T11:44:33.694Z,60.14
2017-07-17T11:45:33.382Z,59.56
2017-07-17T11:57:00.706Z,64.4
2017-07-17T11:59:01.072Z,63.37
2017-07-17T12:00:00.715Z,61.63
2017-07-17T12:01:01.044Z,63.18
2017-07-17T12:02:00.734Z,63.27
2017-07-17T12:03:00.722Z,66.95
2017-07-17T12:04:01.055Z,61.92
2017-07-17T12:06:00.732Z,59.98
2017-07-17T12:07:00.732Z,60.34
2017-07-17T12:08:00.736Z,60.92
2017-07-17T12:09:01.071Z,60.53
2017-07-17T12:10:00.742Z,61.21
2017-07-17T12:11:00.744Z,64.89
2017-07-17T12:12:00.746Z,64.14
2017-07-17T12:13:00.749Z,61.43
2017-07-17T12:14:01.079Z,60.11
2017-07-17T12:15:00.756Z,59.91
2017-07-17T12:16:01.086Z,60.5
2017-07-17T12:17:00.760Z,58.65
2017-07-17T12:18:00.765Z,56.36
2017-07-17T12:19:00.766Z,53.85
2017-07-17T12:20:01.104Z,53.85
2017-07-17T12:21:01.100Z,54.64
2017-07-17T12:22:00.794Z,54.94
2017-07-17T12:23:00.778Z,54.06
2017-07-17T12:24:00.782Z,55.13
2017-07-17T12:25:01.111Z,56.2
2017-07-17T12:26:00.788Z,54.45
2017-07-17T12:27:01.119Z,54.45
2017-07-17T12:28:00.794Z,55.83
2017-07-17T12:29:01.127Z,54.09
2017-07-17T12:30:00.800Z,53.87
2017-07-17T12:31:01.149Z,54.45
2017-07-17T12:32:01.145Z,54.74
2017-07-17T12:33:00.811Z,53.77
2017-07-17T12:34:01.145Z,54.43
2017-07-17T12:35:00.819Z,55.1
2017-07-17T12:36:01.154Z,57.11
2017-07-17T12:37:01.154Z,56.52
2017-07-17T12:38:01.155Z,60.57
2017-07-17T12:39:00.832Z,61.92
2017-07-17T12:40:01.165Z,64.43
2017-07-17T12:41:00.836Z,64.89
2017-07-17T12:42:00.845Z,68.04
2017-07-17T12:43:00.845Z,68.14
2017-07-17T12:44:00.847Z,70.04
2017-07-17T12:45:00.851Z,71.16
2017-07-17T12:46:00.853Z,71.12
2017-07-17T12:47:01.183Z,71.51
2017-07-17T12:48:00.857Z,71.7
2017-07-17T12:49:00.861Z,73.63
2017-07-17T12:50:00.868Z,74.79
2017-07-17T12:51:00.865Z,73.93
2017-07-17T12:52:00.867Z,73.73
2017-07-17T12:53:00.893Z,74.31
2017-07-17T12:54:00.871Z,72.58
2017-07-17T12:55:00.872Z,72.86
2017-07-17T12:56:00.876Z,73.63
2017-07-17T12:57:00.878Z,72.67
2017-07-17T12:58:01.230Z,72
2017-07-17T12:59:01.209Z,72.32
2017-07-17T13:00:00.900Z,73
2017-07-17T13:01:00.887Z,72.9
2017-07-17T13:02:01.217Z,71.36
2017-07-17T13:03:00.891Z,69.17
2017-07-17T13:04:00.893Z,69.46
2017-07-17T13:05:00.895Z,68.72
2017-07-17T13:06:00.897Z,67.3
2017-07-17T13:07:00.899Z,65.27